sensor_id;sensor_type;location;lat;lon;timestamp;P1;durP1;ratioP1;P2;durP2;ratioP2
71916;SDS011;59793;46.506;6.674;2023-04-01T00:00:50;7.20;;;1.65;;
71916;SDS011;59793;46.506;6.674;2023-04-01T00:03:17;8.68;;;1.75;;
71916;SDS011;59793;46.506;6.674;2023-04-01T00:05:43;11.07;;;1.25;;
71916;SDS011;59793;46.506;6.674;2023-04-01T00:08:08;8.32;;;1.83;;
71916;SDS011;59793;46.506;6.674;2023-04-01T00:10:33;10.88;;;1.83;;
71916;SDS011;59793;46.506;6.674;2023-04-01T00:12:59;9.82;;;2.08;;
71916;SDS011;59793;46.506;6.674;2023-04-01T00:15:25;9.25;;;1.50;;
71916;SDS011;59793;46.506;6.674;2023-04-01T00:17:51;14.45;;;3.67;;
71916;SDS011;59793;46.506;6.674;2023-04-01T00:20:16;6.88;;;1.60;;
71916;SDS011;59793;46.506;6.674;2023-04-01T00:22:42;8.10;;;1.95;;
71916;SDS011;59793;46.506;6.674;2023-04-01T00:25:07;7.80;;;1.50;;
71916;SDS011;59793;46.506;6.674;2023-04-01T00:27:33;4.95;;;1.23;;
71916;SDS011;59793;46.506;6.674;2023-04-01T00:29:58;10.00;;;1.95;;
71916;SDS011;59793;46.506;6.674;2023-04-01T00:32:24;7.93;;;1.95;;
71916;SDS011;59793;46.506;6.674;2023-04-01T00:34:51;9.82;;;1.80;;
71916;SDS011;59793;46.506;6.674;2023-04-01T00:37:17;11.23;;;1.80;;
71916;SDS011;59793;46.506;6.674;2023-04-01T00:39:42;6.95;;;1.42;;
71916;SDS011;59793;46.506;6.674;2023-04-01T00:42:09;9.15;;;2.35;;
71916;SDS011;59793;46.506;6.674;2023-04-01T00:44:36;13.48;;;3.13;;
71916;SDS011;59793;46.506;6.674;2023-04-01T00:47:03;7.72;;;1.50;;
71916;SDS011;59793;46.506;6.674;2023-04-01T00:49:39;5.32;;;1.23;;
71916;SDS011;59793;46.506;6.674;2023-04-01T00:52:07;9.55;;;1.50;;
71916;SDS011;59793;46.506;6.674;2023-04-01T00:54:36;4.60;;;1.17;;
71916;SDS011;59793;46.506;6.674;2023-04-01T00:57:05;3.92;;;1.05;;
71916;SDS011;59793;46.506;6.674;2023-04-01T00:59:39;8.38;;;1.63;;
71916;SDS011;59793;46.506;6.674;2023-04-01T01:02:09;6.40;;;1.23;;
71916;SDS011;59793;46.506;6.674;2023-04-01T01:04:37;3.03;;;0.90;;
71916;SDS011;59793;46.506;6.674;2023-04-01T01:12:16;4.60;;;1.02;;
71916;SDS011;59793;46.506;6.674;2023-04-01T01:36:22;6.97;;;1.33;;
71916;SDS011;59793;46.506;6.674;2023-04-01T01:38:53;4.93;;;1.40;;
71916;SDS011;59793;46.506;6.674;2023-04-01T01:41:20;2.40;;;0.70;;
71916;SDS011;59793;46.506;6.674;2023-04-01T01:43:48;3.50;;;0.77;;
71916;SDS011;59793;46.506;6.674;2023-04-01T01:46:21;2.17;;;0.80;;
71916;SDS011;59793;46.506;6.674;2023-04-01T01:48:49;4.00;;;1.02;;
71916;SDS011;59793;46.506;6.674;2023-04-01T01:51:16;3.75;;;0.95;;
71916;SDS011;59793;46.506;6.674;2023-04-01T01:53:43;5.15;;;1.20;;
71916;SDS011;59793;46.506;6.674;2023-04-01T01:56:10;6.18;;;1.55;;
71916;SDS011;59793;46.506;6.674;2023-04-01T02:01:19;3.90;;;1.15;;
71916;SDS011;59793;46.506;6.674;2023-04-01T02:03:48;6.82;;;1.88;;
71916;SDS011;59793;46.506;6.674;2023-04-01T02:08:53;4.53;;;1.23;;
71916;SDS011;59793;46.506;6.674;2023-04-01T02:11:25;5.35;;;1.85;;
71916;SDS011;59793;46.506;6.674;2023-04-01T02:13:56;4.47;;;1.20;;
71916;SDS011;59793;46.506;6.674;2023-04-01T02:19:12;6.57;;;1.48;;
71916;SDS011;59793;46.506;6.674;2023-04-01T02:21:39;7.50;;;1.38;;
71916;SDS011;59793;46.506;6.674;2023-04-01T02:24:07;6.97;;;1.38;;
71916;SDS011;59793;46.506;6.674;2023-04-01T02:26:36;5.88;;;1.67;;
71916;SDS011;59793;46.506;6.674;2023-04-01T02:29:02;6.40;;;1.30;;
71916;SDS011;59793;46.506;6.674;2023-04-01T02:31:30;4.35;;;1.00;;
71916;SDS011;59793;46.506;6.674;2023-04-01T02:33:57;10.23;;;1.55;;
71916;SDS011;59793;46.506;6.674;2023-04-01T02:36:22;9.20;;;1.30;;
71916;SDS011;59793;46.506;6.674;2023-04-01T02:38:48;7.00;;;1.20;;
71916;SDS011;59793;46.506;6.674;2023-04-01T02:41:16;4.60;;;1.17;;
71916;SDS011;59793;46.506;6.674;2023-04-01T02:43:41;3.75;;;1.00;;
71916;SDS011;59793;46.506;6.674;2023-04-01T02:46:07;6.25;;;1.30;;
71916;SDS011;59793;46.506;6.674;2023-04-01T02:48:32;6.47;;;0.90;;
71916;SDS011;59793;46.506;6.674;2023-04-01T02:50:58;8.85;;;1.27;;
71916;SDS011;59793;46.506;6.674;2023-04-01T02:53:23;2.40;;;0.93;;
71916;SDS011;59793;46.506;6.674;2023-04-01T02:55:49;4.05;;;1.30;;
71916;SDS011;59793;46.506;6.674;2023-04-01T02:58:17;2.60;;;0.80;;
71916;SDS011;59793;46.506;6.674;2023-04-01T03:00:43;3.75;;;0.88;;
71916;SDS011;59793;46.506;6.674;2023-04-01T03:03:09;2.63;;;0.80;;
71916;SDS011;59793;46.506;6.674;2023-04-01T03:05:34;2.72;;;0.80;;
71916;SDS011;59793;46.506;6.674;2023-04-01T03:08:00;2.95;;;0.82;;
71916;SDS011;59793;46.506;6.674;2023-04-01T03:10:26;3.25;;;0.90;;
71916;SDS011;59793;46.506;6.674;2023-04-01T03:12:51;3.70;;;1.00;;
71916;SDS011;59793;46.506;6.674;2023-04-01T03:15:16;2.90;;;0.80;;
71916;SDS011;59793;46.506;6.674;2023-04-01T03:17:42;2.60;;;0.65;;
71916;SDS011;59793;46.506;6.674;2023-04-01T03:20:08;3.13;;;0.75;;
71916;SDS011;59793;46.506;6.674;2023-04-01T03:22:35;2.50;;;1.02;;
71916;SDS011;59793;46.506;6.674;2023-04-01T03:25:02;3.40;;;0.80;;
71916;SDS011;59793;46.506;6.674;2023-04-01T03:29:53;3.83;;;0.57;;
71916;SDS011;59793;46.506;6.674;2023-04-01T03:32:19;2.67;;;0.77;;
71916;SDS011;59793;46.506;6.674;2023-04-01T03:34:44;2.92;;;1.55;;
71916;SDS011;59793;46.506;6.674;2023-04-01T03:37:10;4.82;;;1.05;;
71916;SDS011;59793;46.506;6.674;2023-04-01T03:39:35;4.05;;;0.77;;
71916;SDS011;59793;46.506;6.674;2023-04-01T03:42:01;5.47;;;1.10;;
71916;SDS011;59793;46.506;6.674;2023-04-01T03:44:30;5.53;;;1.20;;
71916;SDS011;59793;46.506;6.674;2023-04-01T03:46:56;3.28;;;1.38;;
71916;SDS011;59793;46.506;6.674;2023-04-01T03:49:21;4.28;;;1.38;;
71916;SDS011;59793;46.506;6.674;2023-04-01T03:51:47;3.90;;;1.00;;
71916;SDS011;59793;46.506;6.674;2023-04-01T03:54:12;4.03;;;1.13;;
71916;SDS011;59793;46.506;6.674;2023-04-01T03:56:38;3.67;;;1.10;;
71916;SDS011;59793;46.506;6.674;2023-04-01T03:59:04;3.90;;;0.98;;
71916;SDS011;59793;46.506;6.674;2023-04-01T04:01:31;5.82;;;1.10;;
71916;SDS011;59793;46.506;6.674;2023-04-01T04:03:57;5.88;;;1.45;;
71916;SDS011;59793;46.506;6.674;2023-04-01T04:06:22;3.30;;;1.27;;
71916;SDS011;59793;46.506;6.674;2023-04-01T04:08:49;4.00;;;1.08;;
71916;SDS011;59793;46.506;6.674;2023-04-01T04:11:15;2.08;;;0.73;;
71916;SDS011;59793;46.506;6.674;2023-04-01T04:13:42;6.50;;;2.25;;
71916;SDS011;59793;46.506;6.674;2023-04-01T04:16:08;5.63;;;1.98;;
71916;SDS011;59793;46.506;6.674;2023-04-01T04:21:00;6.60;;;1.42;;
71916;SDS011;59793;46.506;6.674;2023-04-01T04:23:25;7.65;;;1.45;;
71916;SDS011;59793;46.506;6.674;2023-04-01T04:28:20;3.15;;;0.73;;
71916;SDS011;59793;46.506;6.674;2023-04-01T04:30:45;8.85;;;1.27;;
71916;SDS011;59793;46.506;6.674;2023-04-01T04:33:11;4.88;;;0.88;;
71916;SDS011;59793;46.506;6.674;2023-04-01T04:35:36;7.53;;;1.80;;
71916;SDS011;59793;46.506;6.674;2023-04-01T04:38:01;8.63;;;1.35;;
71916;SDS011;59793;46.506;6.674;2023-04-01T04:40:27;4.55;;;0.85;;
71916;SDS011;59793;46.506;6.674;2023-04-01T04:42:52;8.13;;;1.38;;
71916;SDS011;59793;46.506;6.674;2023-04-01T04:45:18;3.85;;;0.82;;
71916;SDS011;59793;46.506;6.674;2023-04-01T04:47:43;2.90;;;0.70;;
71916;SDS011;59793;46.506;6.674;2023-04-01T04:50:08;3.25;;;0.90;;
71916;SDS011;59793;46.506;6.674;2023-04-01T04:52:34;7.18;;;1.70;;
71916;SDS011;59793;46.506;6.674;2023-04-01T04:55:00;4.60;;;1.17;;
71916;SDS011;59793;46.506;6.674;2023-04-01T04:57:25;7.00;;;1.20;;
71916;SDS011;59793;46.506;6.674;2023-04-01T04:59:51;5.63;;;1.58;;
71916;SDS011;59793;46.506;6.674;2023-04-01T05:02:16;6.55;;;1.63;;
71916;SDS011;59793;46.506;6.674;2023-04-01T05:04:41;6.45;;;1.10;;
71916;SDS011;59793;46.506;6.674;2023-04-01T05:07:07;3.85;;;1.10;;
71916;SDS011;59793;46.506;6.674;2023-04-01T05:09:32;4.43;;;0.75;;
71916;SDS011;59793;46.506;6.674;2023-04-01T05:11:58;3.63;;;0.90;;
71916;SDS011;59793;46.506;6.674;2023-04-01T05:14:24;2.10;;;0.43;;
71916;SDS011;59793;46.506;6.674;2023-04-01T05:16:49;1.15;;;0.57;;
71916;SDS011;59793;46.506;6.674;2023-04-01T05:19:15;2.08;;;0.55;;
71916;SDS011;59793;46.506;6.674;2023-04-01T05:21:41;2.58;;;0.70;;
71916;SDS011;59793;46.506;6.674;2023-04-01T05:24:09;1.80;;;0.63;;
71916;SDS011;59793;46.506;6.674;2023-04-01T05:26:35;5.03;;;0.90;;
71916;SDS011;59793;46.506;6.674;2023-04-01T05:29:02;2.20;;;0.90;;
71916;SDS011;59793;46.506;6.674;2023-04-01T05:31:28;2.58;;;0.60;;
71916;SDS011;59793;46.506;6.674;2023-04-01T05:33:54;4.82;;;0.90;;
71916;SDS011;59793;46.506;6.674;2023-04-01T05:36:20;2.53;;;0.70;;
71916;SDS011;59793;46.506;6.674;2023-04-01T05:38:45;3.30;;;0.93;;
71916;SDS011;59793;46.506;6.674;2023-04-01T05:41:12;1.75;;;0.68;;
71916;SDS011;59793;46.506;6.674;2023-04-01T05:43:38;1.80;;;0.60;;
71916;SDS011;59793;46.506;6.674;2023-04-01T05:46:05;4.22;;;0.80;;
71916;SDS011;59793;46.506;6.674;2023-04-01T05:48:32;3.00;;;0.77;;
71916;SDS011;59793;46.506;6.674;2023-04-01T05:50:59;2.65;;;0.70;;
71916;SDS011;59793;46.506;6.674;2023-04-01T05:53:25;2.60;;;1.02;;
71916;SDS011;59793;46.506;6.674;2023-04-01T05:55:50;2.60;;;0.73;;
71916;SDS011;59793;46.506;6.674;2023-04-01T05:58:16;2.05;;;0.50;;
71916;SDS011;59793;46.506;6.674;2023-04-01T06:00:41;1.98;;;0.90;;
71916;SDS011;59793;46.506;6.674;2023-04-01T06:03:07;1.90;;;0.80;;
71916;SDS011;59793;46.506;6.674;2023-04-01T06:05:39;3.58;;;0.75;;
71916;SDS011;59793;46.506;6.674;2023-04-01T06:08:10;2.85;;;1.00;;
71916;SDS011;59793;46.506;6.674;2023-04-01T06:10:58;0.80;;;0.57;;
71916;SDS011;59793;46.506;6.674;2023-04-01T06:30:26;1.48;;;0.40;;
71916;SDS011;59793;46.506;6.674;2023-04-01T06:43:14;1.45;;;0.50;;
71916;SDS011;59793;46.506;6.674;2023-04-01T06:46:01;0.57;;;0.40;;
71916;SDS011;59793;46.506;6.674;2023-04-01T06:51:10;2.00;;;0.45;;
71916;SDS011;59793;46.506;6.674;2023-04-01T06:56:50;3.00;;;0.50;;
71916;SDS011;59793;46.506;6.674;2023-04-01T06:59:25;1.45;;;0.50;;
71916;SDS011;59793;46.506;6.674;2023-04-01T07:02:01;0.40;;;0.30;;
71916;SDS011;59793;46.506;6.674;2023-04-01T07:04:40;0.60;;;0.50;;
71916;SDS011;59793;46.506;6.674;2023-04-01T07:10:13;2.08;;;0.60;;
71916;SDS011;59793;46.506;6.674;2023-04-01T07:12:46;0.68;;;0.40;;
71916;SDS011;59793;46.506;6.674;2023-04-01T07:15:24;0.75;;;0.40;;
71916;SDS011;59793;46.506;6.674;2023-04-01T07:17:55;0.70;;;0.70;;
71916;SDS011;59793;46.506;6.674;2023-04-01T07:20:26;0.98;;;0.40;;
71916;SDS011;59793;46.506;6.674;2023-04-01T07:23:00;1.73;;;0.50;;
71916;SDS011;59793;46.506;6.674;2023-04-01T07:25:34;1.23;;;0.55;;
71916;SDS011;59793;46.506;6.674;2023-04-01T07:28:04;2.13;;;0.60;;
71916;SDS011;59793;46.506;6.674;2023-04-01T07:33:16;2.35;;;0.70;;
71916;SDS011;59793;46.506;6.674;2023-04-01T07:44:06;3.20;;;0.60;;
71916;SDS011;59793;46.506;6.674;2023-04-01T07:46:59;0.90;;;0.38;;
71916;SDS011;59793;46.506;6.674;2023-04-01T07:49:29;1.70;;;0.65;;
71916;SDS011;59793;46.506;6.674;2023-04-01T08:18:47;3.92;;;1.50;;
71916;SDS011;59793;46.506;6.674;2023-04-01T08:21:32;0.32;;;0.32;;
71916;SDS011;59793;46.506;6.674;2023-04-01T08:24:51;0.90;;;0.40;;
71916;SDS011;59793;46.506;6.674;2023-04-01T08:27:09;2.22;;;0.45;;
71916;SDS011;59793;46.506;6.674;2023-04-01T08:30:02;3.58;;;0.80;;
71916;SDS011;59793;46.506;6.674;2023-04-01T08:32:37;3.03;;;0.68;;
71916;SDS011;59793;46.506;6.674;2023-04-01T08:35:11;2.35;;;0.70;;
71916;SDS011;59793;46.506;6.674;2023-04-01T08:37:52;2.10;;;0.68;;
71916;SDS011;59793;46.506;6.674;2023-04-01T08:46:06;1.60;;;0.52;;
71916;SDS011;59793;46.506;6.674;2023-04-01T09:13:46;1.10;;;0.70;;
71916;SDS011;59793;46.506;6.674;2023-04-01T09:30:04;1.15;;;0.50;;
71916;SDS011;59793;46.506;6.674;2023-04-01T09:35:39;2.13;;;0.50;;
71916;SDS011;59793;46.506;6.674;2023-04-01T09:40:57;1.52;;;0.50;;
71916;SDS011;59793;46.506;6.674;2023-04-01T09:43:46;1.20;;;0.40;;
71916;SDS011;59793;46.506;6.674;2023-04-01T09:46:19;0.80;;;0.40;;
71916;SDS011;59793;46.506;6.674;2023-04-01T09:51:52;1.98;;;0.50;;
71916;SDS011;59793;46.506;6.674;2023-04-01T09:54:54;2.13;;;0.60;;
71916;SDS011;59793;46.506;6.674;2023-04-01T10:05:31;0.90;;;0.50;;
71916;SDS011;59793;46.506;6.674;2023-04-01T10:19:38;4.38;;;0.75;;
71916;SDS011;59793;46.506;6.674;2023-04-01T10:25:18;3.58;;;0.93;;
71916;SDS011;59793;46.506;6.674;2023-04-01T10:27:51;0.98;;;0.60;;
71916;SDS011;59793;46.506;6.674;2023-04-01T10:55:37;2.00;;;0.70;;
71916;SDS011;59793;46.506;6.674;2023-04-01T11:26:59;3.47;;;0.98;;
71916;SDS011;59793;46.506;6.674;2023-04-01T11:40:44;3.25;;;0.80;;
71916;SDS011;59793;46.506;6.674;2023-04-01T11:46:08;3.17;;;1.50;;
71916;SDS011;59793;46.506;6.674;2023-04-01T11:51:45;3.10;;;0.45;;
71916;SDS011;59793;46.506;6.674;2023-04-01T11:54:35;1.67;;;0.60;;
71916;SDS011;59793;46.506;6.674;2023-04-01T12:23:06;0.30;;;0.30;;
71916;SDS011;59793;46.506;6.674;2023-04-01T12:25:24;0.60;;;0.30;;
71916;SDS011;59793;46.506;6.674;2023-04-01T12:30:42;0.65;;;0.40;;
71916;SDS011;59793;46.506;6.674;2023-04-01T12:36:39;2.13;;;0.30;;
71916;SDS011;59793;46.506;6.674;2023-04-01T12:39:48;0.30;;;0.20;;
71916;SDS011;59793;46.506;6.674;2023-04-01T13:09:59;1.77;;;0.50;;
71916;SDS011;59793;46.506;6.674;2023-04-01T13:21:23;1.25;;;0.60;;
71916;SDS011;59793;46.506;6.674;2023-04-01T13:34:32;2.03;;;0.43;;
71916;SDS011;59793;46.506;6.674;2023-04-01T13:40:02;0.93;;;0.40;;
71916;SDS011;59793;46.506;6.674;2023-04-01T13:45:42;0.43;;;0.30;;
71916;SDS011;59793;46.506;6.674;2023-04-01T13:48:22;1.40;;;0.40;;
71916;SDS011;59793;46.506;6.674;2023-04-01T13:50:57;1.50;;;0.30;;
71916;SDS011;59793;46.506;6.674;2023-04-01T13:57:00;1.33;;;0.40;;
71916;SDS011;59793;46.506;6.674;2023-04-01T13:59:21;2.08;;;0.50;;
71916;SDS011;59793;46.506;6.674;2023-04-01T14:12:46;1.05;;;0.57;;
71916;SDS011;59793;46.506;6.674;2023-04-01T14:15:40;1.17;;;0.70;;
71916;SDS011;59793;46.506;6.674;2023-04-01T14:23:24;1.15;;;0.60;;
71916;SDS011;59793;46.506;6.674;2023-04-01T14:31:47;2.35;;;0.60;;
71916;SDS011;59793;46.506;6.674;2023-04-01T14:34:25;0.65;;;0.40;;
71916;SDS011;59793;46.506;6.674;2023-04-01T14:36:57;1.48;;;0.55;;
71916;SDS011;59793;46.506;6.674;2023-04-01T14:48:13;0.65;;;0.55;;
71916;SDS011;59793;46.506;6.674;2023-04-01T14:50:46;2.63;;;0.63;;
71916;SDS011;59793;46.506;6.674;2023-04-01T14:53:26;1.90;;;0.50;;
71916;SDS011;59793;46.506;6.674;2023-04-01T14:55:57;4.20;;;0.60;;
71916;SDS011;59793;46.506;6.674;2023-04-01T14:58:40;2.40;;;0.90;;
71916;SDS011;59793;46.506;6.674;2023-04-01T15:03:39;1.70;;;0.60;;
71916;SDS011;59793;46.506;6.674;2023-04-01T15:09:02;2.60;;;0.63;;
71916;SDS011;59793;46.506;6.674;2023-04-01T15:28:48;0.95;;;0.68;;
71916;SDS011;59793;46.506;6.674;2023-04-01T15:31:44;3.08;;;0.50;;
71916;SDS011;59793;46.506;6.674;2023-04-01T15:34:42;0.50;;;0.50;;
71916;SDS011;59793;46.506;6.674;2023-04-01T15:37:56;3.20;;;0.68;;
71916;SDS011;59793;46.506;6.674;2023-04-01T15:40:31;0.98;;;0.55;;
71916;SDS011;59793;46.506;6.674;2023-04-01T15:48:39;1.70;;;0.60;;
71916;SDS011;59793;46.506;6.674;2023-04-01T15:59:06;0.95;;;0.43;;
71916;SDS011;59793;46.506;6.674;2023-04-01T16:02:07;2.78;;;0.77;;
71916;SDS011;59793;46.506;6.674;2023-04-01T16:05:21;0.65;;;0.47;;
71916;SDS011;59793;46.506;6.674;2023-04-01T16:14:03;4.30;;;0.50;;
71916;SDS011;59793;46.506;6.674;2023-04-01T16:22:14;1.75;;;0.80;;
71916;SDS011;59793;46.506;6.674;2023-04-01T16:27:42;2.35;;;0.60;;
71916;SDS011;59793;46.506;6.674;2023-04-01T16:33:22;1.02;;;0.55;;
71916;SDS011;59793;46.506;6.674;2023-04-01T16:36:05;0.55;;;0.55;;
71916;SDS011;59793;46.506;6.674;2023-04-01T16:41:41;1.98;;;0.60;;
71916;SDS011;59793;46.506;6.674;2023-04-01T16:47:35;2.30;;;0.63;;
71916;SDS011;59793;46.506;6.674;2023-04-01T16:50:25;0.73;;;0.50;;
71916;SDS011;59793;46.506;6.674;2023-04-01T16:52:59;2.58;;;0.70;;
71916;SDS011;59793;46.506;6.674;2023-04-01T17:00:58;3.75;;;1.27;;
71916;SDS011;59793;46.506;6.674;2023-04-01T17:03:31;1.23;;;0.70;;
71916;SDS011;59793;46.506;6.674;2023-04-01T17:11:21;1.83;;;1.00;;
71916;SDS011;59793;46.506;6.674;2023-04-01T17:17:08;2.80;;;0.70;;
71916;SDS011;59793;46.506;6.674;2023-04-01T17:22:19;1.13;;;0.57;;
71916;SDS011;59793;46.506;6.674;2023-04-01T17:32:47;2.88;;;1.08;;
71916;SDS011;59793;46.506;6.674;2023-04-01T17:35:39;2.33;;;0.90;;
71916;SDS011;59793;46.506;6.674;2023-04-01T17:38:17;1.85;;;0.90;;
71916;SDS011;59793;46.506;6.674;2023-04-01T18:00:56;1.60;;;0.80;;
71916;SDS011;59793;46.506;6.674;2023-04-01T18:19:44;9.35;;;5.28;;
71916;SDS011;59793;46.506;6.674;2023-04-01T18:22:19;3.53;;;1.70;;
71916;SDS011;59793;46.506;6.674;2023-04-01T18:28:22;5.53;;;2.83;;
71916;SDS011;59793;46.506;6.674;2023-04-01T18:30:43;3.28;;;1.10;;
71916;SDS011;59793;46.506;6.674;2023-04-01T18:33:18;1.40;;;0.80;;
71916;SDS011;59793;46.506;6.674;2023-04-01T18:38:46;4.75;;;1.25;;
71916;SDS011;59793;46.506;6.674;2023-04-01T18:41:32;1.38;;;0.77;;
71916;SDS011;59793;46.506;6.674;2023-04-01T19:00:43;4.18;;;1.45;;
71916;SDS011;59793;46.506;6.674;2023-04-01T19:06:34;2.42;;;1.20;;
71916;SDS011;59793;46.506;6.674;2023-04-01T19:19:56;4.13;;;1.20;;
71916;SDS011;59793;46.506;6.674;2023-04-01T19:22:30;1.95;;;1.00;;
71916;SDS011;59793;46.506;6.674;2023-04-01T19:36:26;2.75;;;0.88;;
71916;SDS011;59793;46.506;6.674;2023-04-01T19:38:58;2.40;;;0.90;;
71916;SDS011;59793;46.506;6.674;2023-04-01T19:52:52;1.52;;;0.93;;
71916;SDS011;59793;46.506;6.674;2023-04-01T20:00:43;1.70;;;0.98;;
71916;SDS011;59793;46.506;6.674;2023-04-01T20:13:08;1.55;;;0.90;;
71916;SDS011;59793;46.506;6.674;2023-04-01T20:15:20;1.85;;;0.77;;
71916;SDS011;59793;46.506;6.674;2023-04-01T20:17:52;1.75;;;0.95;;
71916;SDS011;59793;46.506;6.674;2023-04-01T20:20:21;2.45;;;1.08;;
71916;SDS011;59793;46.506;6.674;2023-04-01T20:25:39;4.25;;;1.10;;
71916;SDS011;59793;46.506;6.674;2023-04-01T20:28:57;1.48;;;0.85;;
71916;SDS011;59793;46.506;6.674;2023-04-01T20:33:50;4.50;;;0.82;;
71916;SDS011;59793;46.506;6.674;2023-04-01T20:44:33;1.23;;;0.88;;
71916;SDS011;59793;46.506;6.674;2023-04-01T20:52:49;3.97;;;1.08;;
71916;SDS011;59793;46.506;6.674;2023-04-01T20:58:36;1.63;;;1.13;;
71916;SDS011;59793;46.506;6.674;2023-04-01T21:12:15;2.83;;;0.93;;
71916;SDS011;59793;46.506;6.674;2023-04-01T21:15:07;1.98;;;1.00;;
71916;SDS011;59793;46.506;6.674;2023-04-01T21:17:58;1.58;;;0.73;;
71916;SDS011;59793;46.506;6.674;2023-04-01T21:23:20;0.73;;;0.70;;
71916;SDS011;59793;46.506;6.674;2023-04-01T22:13:10;1.27;;;0.65;;
71916;SDS011;59793;46.506;6.674;2023-04-01T22:18:33;1.52;;;0.82;;
71916;SDS011;59793;46.506;6.674;2023-04-01T22:21:08;1.20;;;0.80;;
71916;SDS011;59793;46.506;6.674;2023-04-01T22:26:19;1.20;;;0.95;;
71916;SDS011;59793;46.506;6.674;2023-04-01T22:34:18;1.63;;;0.65;;
71916;SDS011;59793;46.506;6.674;2023-04-01T22:42:25;1.65;;;0.85;;
71916;SDS011;59793;46.506;6.674;2023-04-01T22:45:01;0.93;;;0.73;;
71916;SDS011;59793;46.506;6.674;2023-04-01T22:55:50;1.08;;;0.68;;
71916;SDS011;59793;46.506;6.674;2023-04-01T22:58:25;1.23;;;0.75;;
71916;SDS011;59793;46.506;6.674;2023-04-01T23:01:14;3.83;;;0.90;;
71916;SDS011;59793;46.506;6.674;2023-04-01T23:03:44;1.02;;;0.85;;
71916;SDS011;59793;46.506;6.674;2023-04-01T23:06:16;1.50;;;0.95;;
71916;SDS011;59793;46.506;6.674;2023-04-01T23:08:57;0.90;;;0.60;;
71916;SDS011;59793;46.506;6.674;2023-04-01T23:11:33;2.30;;;0.70;;
71916;SDS011;59793;46.506;6.674;2023-04-01T23:22:49;1.08;;;0.80;;
71916;SDS011;59793;46.506;6.674;2023-04-01T23:35:50;1.20;;;0.80;;
71916;SDS011;59793;46.506;6.674;2023-04-01T23:38:18;0.60;;;0.60;;
71916;SDS011;59793;46.506;6.674;2023-04-01T23:40:47;1.10;;;0.85;;
71916;SDS011;59793;46.506;6.674;2023-04-01T23:43:21;1.77;;;1.30;;
71916;SDS011;59793;46.506;6.674;2023-04-01T23:45:50;1.60;;;0.90;;
71916;SDS011;59793;46.506;6.674;2023-04-01T23:48:25;1.27;;;0.90;;
71916;SDS011;59793;46.506;6.674;2023-04-01T23:50:55;0.77;;;0.57;;
71916;SDS011;59793;46.506;6.674;2023-04-01T23:55:53;2.28;;;0.90;;
71916;SDS011;59793;46.506;6.674;2023-04-01T23:58:24;0.93;;;0.70;;
